Mn Pelican — FMLR — position and weather

sailwx.info

Track history (hours):
 
Tides and Currents Weather Stations Pressure Air Temp Water Temp Dewpoint Dewpoint Depression Visibility Wind Speed Wind Dir Waves Ship Positions

Mn Pelican

Last reported at 2015-Aug-05 11:31 UTC. Time now 2015-Aug-05 12:26 UTC.
Position N 40°56' E 009°32'.

Length 155 m; draft 6.3 m.

Type: Ship. MMSI: 228315700.

Date/timePositionNaut miles runAvg speedWind from/ knotsBaromVisibWave heightAir tempDewpointWater temp
2015-Aug-05 11:31N 40°56' E 009°32'0 0.2
2015-Aug-05 10:33N 40°55' E 009°32'1211.9
2015-Aug-05 09:31N 41°02' E 009°46'1414.7
2015-Aug-05 08:33N 41°17' E 009°46'1514.7
2015-Aug-05 07:32N 41°32' E 009°45'5714.4
2015-Aug-05 03:33N 42°29' E 009°44'1414.3
2015-Aug-05 02:33N 42°43' E 009°50'1414.6
2015-Aug-05 01:34N 42°56' E 009°57'1514.6
2015-Aug-05 00:33N 43°10' E 010°03'1514.9
2015-Aug-04 23:33N 43°24' E 010°10'1110.9
2015-Aug-04 22:33N 43°34' E 010°18'1 1.1
2015-Aug-04 21:33N 43°34' E 010°19'0 0.0
2015-Aug-04 20:33N 43°34' E 010°19'0 0.0
2015-Aug-04 19:32N 43°34' E 010°19'0 0.0
2015-Aug-04 18:32N 43°34' E 010°19'1 0.9
2015-Aug-04 17:34N 43°34' E 010°18'9 9.3
2015-Aug-04 16:34N 43°26' E 010°11'1919.3
2015-Aug-04 15:34N 43°08' E 010°02'1919.4
2015-Aug-04 14:33N 42°49' E 009°54'2019.7
2015-Aug-04 13:33N 42°30' E 009°48'2919.8
2015-Aug-04 12:04N 42°01' E 009°45'1919.9
2015-Aug-04 11:06N 41°41' E 009°45'32 2.6
2015-Aug-03 22:26N 42°14' E 009°47'1819.7
2015-Aug-03 21:32N 42°32' E 009°49'1919.6
2015-Aug-03 20:33N 42°50' E 009°55'2020.0
2015-Aug-03 19:33N 43°09' E 010°03'2019.7
2015-Aug-03 18:33N 43°28' E 010°12'8 7.5
2015-Aug-03 17:27N 43°34' E 010°19'0 0.0
2015-Aug-03 16:33N 43°34' E 010°19'0 0.0
2015-Aug-03 15:33N 43°34' E 010°19'0 0.0
2015-Aug-03 14:32N 43°34' E 010°19'0 0.0
2015-Aug-03 13:32N 43°34' E 010°19'0 0.0
2015-Aug-03 12:31N 43°34' E 010°19'0 0.0
2015-Aug-03 11:31N 43°34' E 010°19'0 0.0
2015-Aug-03 10:33N 43°34' E 010°19'0 0.0
2015-Aug-03 09:33N 43°34' E 010°19'0 0.0
2015-Aug-03 08:33N 43°34' E 010°19'0 0.0
2015-Aug-03 07:32N 43°34' E 010°19'0 0.0
2015-Aug-03 06:32N 43°34' E 010°19'0 0.0
2015-Aug-03 05:28N 43°34' E 010°19'0 0.0
2015-Aug-03 04:31N 43°34' E 010°19'0 0.0
2015-Aug-03 03:33N 43°34' E 010°19'0 0.0
2015-Aug-03 02:33N 43°34' E 010°19'0 0.0
2015-Aug-03 01:33N 43°34' E 010°19'0 0.0
2015-Aug-03 00:32N 43°34' E 010°19'0 0.0
2015-Aug-02 23:32N 43°34' E 010°19'0 0.0
2015-Aug-02 22:31N 43°34' E 010°19'0 0.0
2015-Aug-02 21:31N 43°34' E 010°19'0 0.0
2015-Aug-02 20:33N 43°34' E 010°19'0 0.0
2015-Aug-02 19:33N 43°34' E 010°19'0 0.0
2015-Aug-02 18:33N 43°34' E 010°19'0 0.0
2015-Aug-02 17:32N 43°34' E 010°19'0 0.0
2015-Aug-02 16:32N 43°34' E 010°19'0 0.0
2015-Aug-02 15:31N 43°34' E 010°19'0 0.0
2015-Aug-02 14:31N 43°34' E 010°19'0 0.0
2015-Aug-02 13:30N 43°34' E 010°19'0 0.0
2015-Aug-02 12:33N 43°34' E 010°19'0 0.0
2015-Aug-02 11:32N 43°34' E 010°19'0 0.0
2015-Aug-02 10:32N 43°34' E 010°19'0 0.0
2015-Aug-02 09:33N 43°34' E 010°19'0 0.0
2015-Aug-02 08:31N 43°34' E 010°19'0 0.0
2015-Aug-02 07:28N 43°34' E 010°19'0 0.0
2015-Aug-02 06:33N 43°34' E 010°19'0 0.0
2015-Aug-02 05:33N 43°34' E 010°19'3 2.6
2015-Aug-02 04:33N 43°32' E 010°17'1514.6
2015-Aug-02 03:33N 43°19' E 010°08'1717.4
2015-Aug-02 02:33N 43°03' E 009°60'2017.0
2015-Aug-02 01:24N 42°44' E 009°51'93 4.2
2015-Aug-01 03:05N 41°12' E 009°46'815.5
2015-Aug-01 02:33N 41°20' E 009°45'6415.9
2015-Jul-31 22:32N 42°24' E 009°45'2316.2
2015-Jul-31 21:08N 42°46' E 009°52'1016.6
2015-Jul-31 20:31N 42°56' E 009°56'1616.9
2015-Jul-31 19:33N 43°11' E 010°03'1616.2
2015-Jul-31 18:33N 43°26' E 010°10'10 9.9
2015-Jul-31 17:31N 43°34' E 010°19'0 0.0
2015-Jul-31 16:33N 43°34' E 010°19'0 0.0
2015-Jul-31 15:33N 43°34' E 010°19'0 0.0
2015-Jul-31 14:33N 43°34' E 010°19'0 0.0
2015-Jul-31 13:33N 43°34' E 010°19'0 0.0
2015-Jul-31 12:33N 43°34' E 010°19'2 2.5
2015-Jul-31 11:33N 43°32' E 010°17'1615.9
2015-Jul-31 10:34N 43°18' E 010°08'1919.0
2015-Jul-31 09:34N 43°00' E 009°59'12615.3
2015-Jul-31 01:19N 40°56' E 009°32'0 0.0
2015-Jul-31 00:30N 40°56' E 009°32'0 0.0
2015-Jul-30 23:24N 40°56' E 009°32'0 0.0
2015-Jul-30 22:30N 40°56' E 009°32'0 0.0
2015-Jul-30 21:33N 40°56' E 009°32'4 4.2
2015-Jul-30 20:33N 40°57' E 009°38'1815.2
2015-Jul-30 19:21N 41°14' E 009°45'8019.9
2015-Jul-30 15:21N 42°34' E 009°49'1620.0
2015-Jul-30 14:33N 42°49' E 009°54'2020.1
2015-Jul-30 13:33N 43°09' E 010°02'1919.0
2015-Jul-30 12:33N 43°27' E 010°10'10 9.8
2015-Jul-30 11:31N 43°34' E 010°19'0 0.0
2015-Jul-30 10:31N 43°34' E 010°19'0 0.0
2015-Jul-30 09:33N 43°34' E 010°19'0 0.0
2015-Jul-30 08:33N 43°34' E 010°19'0 0.0
2015-Jul-30 07:29N 43°34' E 010°19'0 0.0
2015-Jul-30 06:32N 43°34' E 010°19'0 0.0
2015-Jul-30 05:31N 43°34' E 010°19'2 2.1
2015-Jul-30 04:33N 43°33' E 010°17'1414.4
2015-Jul-30 03:33N 43°20' E 010°08'1817.6
2015-Jul-30 02:33N 43°03' E 010°00'3716.7
2015-Jul-30 00:21N 42°28' E 009°47'1416.5
2015-Jul-29 23:30N 42°14' E 009°45'1616.5
2015-Jul-29 22:33N 41°58' E 009°44'1717.0
2015-Jul-29 21:33N 41°41' E 009°45'63 3.3
2015-Jul-29 02:23N 42°44' E 009°51'1615.6
2015-Jul-29 01:23N 42°59' E 009°58'1315.5
2015-Jul-29 00:33N 43°11' E 010°03'1514.6
2015-Jul-28 23:33N 43°25' E 010°10'1111.1
2015-Jul-28 22:33N 43°34' E 010°18'1 0.6
2015-Jul-28 21:31N 43°34' E 010°19'0 0.0
2015-Jul-28 20:25N 43°34' E 010°19'0 0.0
2015-Jul-28 19:33N 43°34' E 010°19'0 0.0
2015-Jul-28 18:33N 43°34' E 010°19'2 2.5
2015-Jul-28 17:33N 43°32' E 010°17'1716.6
2015-Jul-28 16:33N 43°17' E 010°07'1919.0
2015-Jul-28 15:33N 42°59' E 009°58'1919.2
2015-Jul-28 14:33N 42°41' E 009°51'2 0.1
2015-Jul-27 21:10N 42°39' E 009°49'1219.8
2015-Jul-27 20:33N 42°51' E 009°55'2119.6
2015-Jul-27 19:30N 43°10' E 010°05'1818.7
2015-Jul-27 18:33N 43°27' E 010°11'9 9.2
2015-Jul-27 17:33N 43°34' E 010°19'0 0.0
2015-Jul-27 16:33N 43°34' E 010°19'0 0.0
2015-Jul-27 15:32N 43°34' E 010°19'0 0.0
2015-Jul-27 14:29N 43°34' E 010°19'0 0.0
2015-Jul-27 13:31N 43°34' E 010°19'0 0.0
2015-Jul-27 12:31N 43°34' E 010°19'0 0.0
2015-Jul-27 09:30N 43°34' E 010°19'0 0.0
2015-Jul-27 08:32N 43°34' E 010°19'  
Track history (hours):
 
Tides and Currents Weather Stations Pressure Air Temp Water Temp Dewpoint Dewpoint Depression Visibility Wind Speed Wind Dir Waves Ship Positions

Mn Pelican

Last reported at 2015-Aug-05 11:31 UTC. Time now 2015-Aug-05 12:26 UTC.
Position N 40°56' E 009°32'.

Length 155 m; draft 6.3 m.

Type: Ship. MMSI: 228315700.

Date/timePositionNaut miles runAvg speedWind from/ knotsBaromVisibWave heightAir tempDewpointWater temp
2015-Aug-05 11:31N 40°56' E 009°32'0 0.2
2015-Aug-05 10:33N 40°55' E 009°32'1211.9
2015-Aug-05 09:31N 41°02' E 009°46'1414.7
2015-Aug-05 08:33N 41°17' E 009°46'1514.7
2015-Aug-05 07:32N 41°32' E 009°45'5714.4
2015-Aug-05 03:33N 42°29' E 009°44'1414.3
2015-Aug-05 02:33N 42°43' E 009°50'1414.6
2015-Aug-05 01:34N 42°56' E 009°57'1514.6
2015-Aug-05 00:33N 43°10' E 010°03'1514.9
2015-Aug-04 23:33N 43°24' E 010°10'1110.9
2015-Aug-04 22:33N 43°34' E 010°18'1 1.1
2015-Aug-04 21:33N 43°34' E 010°19'0 0.0
2015-Aug-04 20:33N 43°34' E 010°19'0 0.0
2015-Aug-04 19:32N 43°34' E 010°19'0 0.0
2015-Aug-04 18:32N 43°34' E 010°19'1 0.9
2015-Aug-04 17:34N 43°34' E 010°18'9 9.3
2015-Aug-04 16:34N 43°26' E 010°11'1919.3
2015-Aug-04 15:34N 43°08' E 010°02'1919.4
2015-Aug-04 14:33N 42°49' E 009°54'2019.7
2015-Aug-04 13:33N 42°30' E 009°48'2919.8
2015-Aug-04 12:04N 42°01' E 009°45'1919.9
2015-Aug-04 11:06N 41°41' E 009°45'32 2.6
2015-Aug-03 22:26N 42°14' E 009°47'1819.7
2015-Aug-03 21:32N 42°32' E 009°49'1919.6
2015-Aug-03 20:33N 42°50' E 009°55'2020.0
2015-Aug-03 19:33N 43°09' E 010°03'2019.7
2015-Aug-03 18:33N 43°28' E 010°12'8 7.5
2015-Aug-03 17:27N 43°34' E 010°19'0 0.0
2015-Aug-03 16:33N 43°34' E 010°19'0 0.0
2015-Aug-03 15:33N 43°34' E 010°19'0 0.0
2015-Aug-03 14:32N 43°34' E 010°19'0 0.0
2015-Aug-03 13:32N 43°34' E 010°19'0 0.0
2015-Aug-03 12:31N 43°34' E 010°19'0 0.0
2015-Aug-03 11:31N 43°34' E 010°19'0 0.0
2015-Aug-03 10:33N 43°34' E 010°19'0 0.0
2015-Aug-03 09:33N 43°34' E 010°19'0 0.0
2015-Aug-03 08:33N 43°34' E 010°19'0 0.0
2015-Aug-03 07:32N 43°34' E 010°19'0 0.0
2015-Aug-03 06:32N 43°34' E 010°19'0 0.0
2015-Aug-03 05:28N 43°34' E 010°19'0 0.0
2015-Aug-03 04:31N 43°34' E 010°19'0 0.0
2015-Aug-03 03:33N 43°34' E 010°19'0 0.0
2015-Aug-03 02:33N 43°34' E 010°19'0 0.0
2015-Aug-03 01:33N 43°34' E 010°19'0 0.0
2015-Aug-03 00:32N 43°34' E 010°19'0 0.0
2015-Aug-02 23:32N 43°34' E 010°19'0 0.0
2015-Aug-02 22:31N 43°34' E 010°19'0 0.0
2015-Aug-02 21:31N 43°34' E 010°19'0 0.0
2015-Aug-02 20:33N 43°34' E 010°19'0 0.0
2015-Aug-02 19:33N 43°34' E 010°19'0 0.0
2015-Aug-02 18:33N 43°34' E 010°19'0 0.0
2015-Aug-02 17:32N 43°34' E 010°19'0 0.0
2015-Aug-02 16:32N 43°34' E 010°19'0 0.0
2015-Aug-02 15:31N 43°34' E 010°19'0 0.0
2015-Aug-02 14:31N 43°34' E 010°19'0 0.0
2015-Aug-02 13:30N 43°34' E 010°19'0 0.0
2015-Aug-02 12:33N 43°34' E 010°19'0 0.0
2015-Aug-02 11:32N 43°34' E 010°19'0 0.0
2015-Aug-02 10:32N 43°34' E 010°19'0 0.0
2015-Aug-02 09:33N 43°34' E 010°19'0 0.0
2015-Aug-02 08:31N 43°34' E 010°19'0 0.0
2015-Aug-02 07:28N 43°34' E 010°19'0 0.0
2015-Aug-02 06:33N 43°34' E 010°19'0 0.0
2015-Aug-02 05:33N 43°34' E 010°19'3 2.6
2015-Aug-02 04:33N 43°32' E 010°17'1514.6
2015-Aug-02 03:33N 43°19' E 010°08'1717.4
2015-Aug-02 02:33N 43°03' E 009°60'2017.0
2015-Aug-02 01:24N 42°44' E 009°51'93 4.2
2015-Aug-01 03:05N 41°12' E 009°46'815.5
2015-Aug-01 02:33N 41°20' E 009°45'6415.9
2015-Jul-31 22:32N 42°24' E 009°45'2316.2
2015-Jul-31 21:08N 42°46' E 009°52'1016.6
2015-Jul-31 20:31N 42°56' E 009°56'1616.9
2015-Jul-31 19:33N 43°11' E 010°03'1616.2
2015-Jul-31 18:33N 43°26' E 010°10'10 9.9
2015-Jul-31 17:31N 43°34' E 010°19'0 0.0
2015-Jul-31 16:33N 43°34' E 010°19'0 0.0
2015-Jul-31 15:33N 43°34' E 010°19'0 0.0
2015-Jul-31 14:33N 43°34' E 010°19'0 0.0
2015-Jul-31 13:33N 43°34' E 010°19'0 0.0
2015-Jul-31 12:33N 43°34' E 010°19'2 2.5
2015-Jul-31 11:33N 43°32' E 010°17'1615.9
2015-Jul-31 10:34N 43°18' E 010°08'1919.0
2015-Jul-31 09:34N 43°00' E 009°59'12615.3
2015-Jul-31 01:19N 40°56' E 009°32'0 0.0
2015-Jul-31 00:30N 40°56' E 009°32'0 0.0
2015-Jul-30 23:24N 40°56' E 009°32'0 0.0
2015-Jul-30 22:30N 40°56' E 009°32'0 0.0
2015-Jul-30 21:33N 40°56' E 009°32'4 4.2
2015-Jul-30 20:33N 40°57' E 009°38'1815.2
2015-Jul-30 19:21N 41°14' E 009°45'8019.9
2015-Jul-30 15:21N 42°34' E 009°49'1620.0
2015-Jul-30 14:33N 42°49' E 009°54'2020.1
2015-Jul-30 13:33N 43°09' E 010°02'1919.0
2015-Jul-30 12:33N 43°27' E 010°10'10 9.8
2015-Jul-30 11:31N 43°34' E 010°19'0 0.0
2015-Jul-30 10:31N 43°34' E 010°19'0 0.0
2015-Jul-30 09:33N 43°34' E 010°19'0 0.0
2015-Jul-30 08:33N 43°34' E 010°19'0 0.0
2015-Jul-30 07:29N 43°34' E 010°19'0 0.0
2015-Jul-30 06:32N 43°34' E 010°19'0 0.0
2015-Jul-30 05:31N 43°34' E 010°19'2 2.1
2015-Jul-30 04:33N 43°33' E 010°17'1414.4
2015-Jul-30 03:33N 43°20' E 010°08'1817.6
2015-Jul-30 02:33N 43°03' E 010°00'3716.7
2015-Jul-30 00:21N 42°28' E 009°47'1416.5
2015-Jul-29 23:30N 42°14' E 009°45'1616.5
2015-Jul-29 22:33N 41°58' E 009°44'1717.0
2015-Jul-29 21:33N 41°41' E 009°45'63 3.3
2015-Jul-29 02:23N 42°44' E 009°51'1615.6
2015-Jul-29 01:23N 42°59' E 009°58'1315.5
2015-Jul-29 00:33N 43°11' E 010°03'1514.6
2015-Jul-28 23:33N 43°25' E 010°10'1111.1
2015-Jul-28 22:33N 43°34' E 010°18'1 0.6
2015-Jul-28 21:31N 43°34' E 010°19'0 0.0
2015-Jul-28 20:25N 43°34' E 010°19'0 0.0
2015-Jul-28 19:33N 43°34' E 010°19'0 0.0
2015-Jul-28 18:33N 43°34' E 010°19'2 2.5
2015-Jul-28 17:33N 43°32' E 010°17'1716.6
2015-Jul-28 16:33N 43°17' E 010°07'1919.0
2015-Jul-28 15:33N 42°59' E 009°58'1919.2
2015-Jul-28 14:33N 42°41' E 009°51'2 0.1
2015-Jul-27 21:10N 42°39' E 009°49'1219.8
2015-Jul-27 20:33N 42°51' E 009°55'2119.6
2015-Jul-27 19:30N 43°10' E 010°05'1818.7
2015-Jul-27 18:33N 43°27' E 010°11'9 9.2
2015-Jul-27 17:33N 43°34' E 010°19'0 0.0
2015-Jul-27 16:33N 43°34' E 010°19'0 0.0
2015-Jul-27 15:32N 43°34' E 010°19'0 0.0
2015-Jul-27 14:29N 43°34' E 010°19'0 0.0
2015-Jul-27 13:31N 43°34' E 010°19'0 0.0
2015-Jul-27 12:31N 43°34' E 010°19'0 0.0
2015-Jul-27 09:30N 43°34' E 010°19'0 0.0
2015-Jul-27 08:32N 43°34' E 010°19'  

Dump ship's entire track history